AKDT,Max TemperatureF,Mean TemperatureF,Min TemperatureF,Max Dew PointF,MeanDew PointF,Min DewpointF,Max Humidity, Mean Humidity, Min Humidity, Max Sea Level PressureIn, Mean Sea Level PressureIn, Min Sea Level PressureIn, Max VisibilityMiles, Mean VisibilityMiles, Min VisibilityMiles, Max Wind SpeedMPH, Mean Wind SpeedMPH, Max Gust SpeedMPH,PrecipitationIn, CloudCover, Events, WindDirDegrees
2013-8-1,70,62,53,57,54,51,93,77,63,30.08,30.03,29.97,10,10,10,13,5,,0.00,0,,124
2013-8-2,69,59,50,57,54,48,100,81,63,30.06,30.03,30.01,10,9,2,13,3,,0.00,0,,117
2013-8-3,68,60,54,57,54,52,94,79,67,30.14,30.10,30.07,10,10,10,13,7,17,0.00,4,Rain,111
2013-8-4,63,59,55,56,54,51,100,85,72,30.10,30.08,30.06,10,8,2,13,7,23,0.08,8,Rain,102
2013-8-5,64,58,53,57,55,53,100,92,77,30.09,30.05,30.03,10,6,1,9,3,,0.09,8,Rain,132
2013-8-6,69,60,51,56,54,50,100,82,61,30.09,30.04,29.98,10,9,2,10,3,,0.00,2,,119
2013-8-7,70,62,54,56,53,51,93,77,58,30.01,29.97,29.92,10,10,10,9,4,,0.00,0,,109
2013-8-8,62,60,57,59,56,52,96,90,78,30.03,29.97,29.93,10,8,2,12,6,20,0.26,8,Rain,90
2013-8-9,64,60,55,57,54,49,100,81,60,30.09,30.04,30.02,10,10,10,14,6,21,0.00,6,,104
2013-8-10,66,58,50,54,51,48,96,77,58,30.10,30.06,30.02,10,10,10,10,3,,0.00,1,,119
2013-8-11,69,58,48,55,52,48,97,80,58,30.08,30.03,29.98,10,10,7,10,3,,0.00,0,,127
2013-8-12,73,62,51,56,53,50,97,76,53,30.02,29.99,29.95,10,10,10,8,2,,0.00,1,,132
2013-8-13,69,60,51,57,54,50,97,78,65,30.02,30.00,29.96,10,10,10,10,3,17,0.00,0,,118
2013-8-14,70,62,55,57,54,52,94,79,59,30.01,29.89,29.78,10,10,10,12,6,,0.00,3,,90
2013-8-15,71,62,53,58,54,51,93,77,59,29.84,29.81,29.76,10,10,10,13,5,20,0.00,3,,96
2013-8-16,61,59,57,57,56,55,97,90,83,29.84,29.82,29.79,10,10,6,12,8,22,0.22,8,Rain,84
2013-8-17,64,60,54,57,55,53,97,89,72,29.80,29.70,29.61,10,8,1,10,5,,0.17,8,Rain,109
2013-8-18,61,56,53,54,52,48,100,85,77,29.73,29.66,29.59,10,9,2,14,8,24,0.26,8,Rain,88
2013-8-19,59,56,53,52,50,48,94,82,72,29.92,29.80,29.73,10,10,10,13,7,22,0.00,8,,90
2013-8-20,61,58,55,54,52,51,89,84,75,30.09,30.02,29.92,10,10,10,14,8,24,0.00,8,,90
2013-8-21,59,57,55,52,51,50,88,81,75,30.08,29.97,29.85,10,10,10,12,8,23,0.00,8,,92
2013-8-22,61,58,55,53,51,49,89,82,72,29.87,29.85,29.83,10,10,10,10,7,18,0.00,8,,94
2013-8-23,59,56,55,53,51,50,88,81,75,29.83,29.73,29.60,10,10,6,15,9,23,0.01,7,Rain,83
2013-8-24,55,54,53,53,52,51,97,90,84,29.69,29.63,29.57,10,9,3,16,10,31,0.41,8,Rain,75
2013-8-25,60,55,51,55,53,51,100,93,78,29.78,29.75,29.69,10,10,7,14,7,21,0.12,8,Rain,300
2013-8-26,60,56,52,56,53,52,100,93,83,29.80,29.78,29.76,10,9,2,10,6,,0.12,8,Rain,113
2013-8-27,71,60,51,54,52,51,100,85,51,29.86,29.77,29.73,10,8,1,17,13,22,0.01,4,,304
2013-8-28,61,56,48,54,53,48,97,86,77,29.90,29.88,29.86,10,10,10,8,6,,0.00,6,,115
2013-8-29,68,56,45,54,48,44,100,89,59,29.87,29.84,29.77,10,6,0,9,1,,0.00,2,Fog,241
2013-8-30,63,57,51,55,51,46,94,82,67,30.02,29.92,29.80,10,10,8,17,12,22,0.02,5,Rain,99
2013-8-31,59,57,55,55,55,54,97,90,87,30.03,29.98,29.88,10,10,8,10,7,22,0.05,8,Rain,91